This is the latest recevied weather packets stored in our database for station/object KQ4TV-2. If no packets are shown the sender has not sent any weather packets the latest 10 day(s).
| Time | Temp. | Humidity | Pressure | Rain* | Wind** | Luminosity | Snow |
|---|---|---|---|---|---|---|---|
| 1787740195 | 18.33° C | 94% | - | 0 mm | - | - | - |
| 1787739953 | 18.33° C | 94% | - | 0 mm | - | - | - |
| 1787738898 | 18.89° C | 94% | - | 0 mm | - | - | - |
| 1787738865 | 18.89° C | 94% | - | 0 mm | - | - | - |
| 1787737207 | 18.89° C | 93% | - | 0 mm | - | - | - |
| 1787737173 | 18.89° C | 93% | - | 0 mm | - | - | - |
| 1787735844 | 18.89° C | 93% | - | 0 mm | - | - | - |
| 1787735482 | 19.44° C | 93% | - | 0 mm | - | - | - |
| 1787734877 | 19.44° C | 93% | - | 0 mm | - | - | - |
| 1787730439 | 19.44° C | 92% | - | 0 mm | - | - | - |
| 1787730406 | 19.44° C | 92% | - | 0 mm | - | - | - |
| 1787730043 | 19.44° C | 91% | - | 0 mm | - | - | - |
| 1787728517 | 20° C | 89% | - | 0 mm | - | - | - |
| 1787728472 | 20° C | 89% | - | 0 mm | - | - | - |
| 1787726450 | 20.56° C | 86% | - | 0 mm | - | - | - |
| 1787726418 | 20.56° C | 86% | - | 0 mm | - | - | - |
| 1787725813 | 20.56° C | 85% | - | 0 mm | - | - | - |
| 1787723164 | 21.67° C | 81% | - | 0 mm | - | - | - |
| 1787723155 | 21.67° C | 81% | - | 0 mm | - | - | - |
| 1787679075 | 28.33° C | 51% | - | 0 mm | - | - | - |
| 1787678337 | 28.89° C | 54% | - | 0 mm | - | - | - |
| 1787652080 | 18.89° C | 93% | - | 0 mm | - | - | - |
| 1787630327 | 21.11° C | 78% | - | 0 mm | - | - | - |
| 1787628635 | 21.11° C | 75% | - | 0 mm | - | - | - |
| 1787628514 | 21.11° C | 75% | - | 0 mm | - | - | - |
* Rain since midnight (hover to see other rain measurements)
** Current wind speed in m/s (hover to see current wind gust speed)